Time;durP1;ratioP1;P1;durP2;ratioP2;P2;SDS_P1;SDS_P2;PMS_P1;PMS_P2;Temp;Humidity;BMP_temperature;BMP_pressure;BME280_temperature;BME280_humidity;BME280_pressure;Samples;Min_cycle;Max_cycle;Signal;HPM_P1;HPM_P2
2022/01/06 00:00:11;;;;;;;14.52;4.57;;;;;;;0.99;70.66;97390.69;5092013;28;20555;-67
2022/01/06 00:02:37;;;;;;;14.90;4.43;;;;;;;0.99;71.20;97389.88;5110995;28;20031;-68
2022/01/06 00:05:02;;;;;;;11.82;4.35;;;;;;;0.99;71.39;97379.88;5093081;28;20289;-68
2022/01/06 00:07:29;;;;;;;14.77;5.57;;;;;;;0.98;71.10;97372.84;5079197;28;20126;-68
2022/01/06 00:09:54;;;;;;;13.80;4.57;;;;;;;0.97;71.46;97370.44;5060217;28;20035;-66
2022/01/06 00:12:25;;;;;;;18.33;6.40;;;;;;;0.94;70.86;97354.75;5085629;28;20036;-65
2022/01/06 00:17:44;;;;;;;14.55;6.00;;;;;;;0.97;71.46;97365.03;5084715;28;20538;-65
2022/01/06 00:25:36;;;;;;;13.10;4.38;;;;;;;1.01;70.95;97374.22;5083127;28;20589;-66
2022/01/06 00:28:01;;;;;;;10.25;3.08;;;;;;;0.99;70.66;97368.28;5058660;28;20947;-67
2022/01/06 00:30:28;;;;;;;12.43;4.18;;;;;;;0.98;70.71;97378.25;5074973;28;20077;-65
2022/01/06 00:32:54;;;;;;;10.20;3.60;;;;;;;0.98;71.14;97380.16;5086379;28;20047;-66
2022/01/06 00:35:19;;;;;;;18.38;6.68;;;;;;;1.00;71.47;97383.41;5089080;28;20032;-66
2022/01/06 00:37:45;;;;;;;13.80;7.55;;;;;;;1.00;70.73;97384.19;5079519;28;20106;-65
2022/01/06 00:40:10;;;;;;;9.50;3.63;;;;;;;1.03;71.13;97383.69;5084068;28;20024;-67
2022/01/06 00:42:36;;;;;;;8.60;3.08;;;;;;;1.06;71.00;97389.63;5084908;28;20509;-66
2022/01/06 00:45:02;;;;;;;9.35;3.42;;;;;;;1.04;70.96;97390.72;5083838;28;20039;-67
2022/01/06 00:47:27;;;;;;;8.82;4.60;;;;;;;1.08;71.16;97392.91;5080980;28;20032;-67
2022/01/06 00:49:53;;;;;;;9.30;4.85;;;;;;;1.08;71.30;97377.50;5077131;28;20032;-66
2022/01/06 00:52:18;;;;;;;9.98;5.50;;;;;;;1.11;71.07;97387.78;5081352;28;20036;-67
2022/01/06 00:54:43;;;;;;;8.98;3.58;;;;;;;1.11;70.60;97384.28;5086100;28;20059;-66
2022/01/06 00:57:09;;;;;;;12.70;5.70;;;;;;;1.10;70.73;97386.16;5082107;28;20032;-69
2022/01/06 00:59:34;;;;;;;9.40;3.90;;;;;;;1.07;70.31;97394.75;5088753;28;20078;-66
2022/01/06 01:02:00;;;;;;;7.28;3.13;;;;;;;1.07;70.72;97389.38;5091370;27;20039;-68
2022/01/06 01:04:25;;;;;;;11.82;5.07;;;;;;;1.07;70.56;97375.88;5089146;27;20028;-67
2022/01/06 01:06:51;;;;;;;7.20;3.53;;;;;;;1.06;71.24;97390.44;5088841;27;20024;-67
2022/01/06 01:09:16;;;;;;;9.75;3.97;;;;;;;1.08;70.34;97377.50;5082264;27;20078;-67
2022/01/06 01:11:42;;;;;;;12.90;4.88;;;;;;;1.08;70.78;97384.78;5082514;27;20032;-67
2022/01/06 01:14:18;;;;;;;11.40;6.70;;;;;;;1.07;71.02;97392.06;5088308;27;20446;-66
2022/01/06 01:16:53;;;;;;;7.72;3.30;;;;;;;1.07;70.94;97389.38;5089034;27;20069;-66
2022/01/06 01:19:20;;;;;;;7.18;3.00;;;;;;;1.07;70.98;97383.16;5087640;28;20243;-66
2022/01/06 01:21:45;;;;;;;7.80;3.88;;;;;;;1.08;70.45;97382.09;5092052;27;20031;-67
2022/01/06 01:24:11;;;;;;;5.65;3.15;;;;;;;1.09;70.42;97372.91;5092136;27;20392;-66
2022/01/06 01:26:36;;;;;;;5.95;3.22;;;;;;;1.12;70.66;97380.50;5093549;27;20039;-66
2022/01/06 01:29:02;;;;;;;7.90;3.08;;;;;;;1.14;71.18;97375.66;5085152;27;20043;-66
2022/01/06 01:31:35;;;;;;;6.82;2.88;;;;;;;1.17;70.68;97375.94;5082907;27;20228;-66
2022/01/06 01:34:07;;;;;;;7.88;3.00;;;;;;;1.21;70.27;97380.81;5083818;27;20028;-66
2022/01/06 01:36:33;;;;;;;8.20;4.28;;;;;;;1.21;70.37;97380.81;5092282;27;20027;-66
2022/01/06 01:38:58;;;;;;;10.23;4.40;;;;;;;1.21;70.60;97368.13;5074655;28;20103;-67
2022/01/06 01:41:24;;;;;;;7.68;3.38;;;;;;;1.17;71.37;97375.94;5071582;28;20027;-68
2022/01/06 01:43:50;;;;;;;11.25;5.32;;;;;;;1.13;70.83;97377.53;5088235;28;20139;-67
2022/01/06 01:46:19;;;;;;;10.55;5.03;;;;;;;1.09;71.15;97386.41;5084171;27;21000;-66
2022/01/06 01:48:52;;;;;;;8.73;4.80;;;;;;;1.04;71.24;97396.13;5093117;28;20024;-67
2022/01/06 01:51:18;;;;;;;10.20;5.25;;;;;;;0.98;71.48;97402.56;5110943;27;20081;-66
2022/01/06 01:53:43;;;;;;;12.98;4.20;;;;;;;0.92;71.05;97406.28;5110061;28;20467;-67
2022/01/06 01:56:12;;;;;;;8.93;4.22;;;;;;;0.88;71.14;97403.31;5110261;28;20130;-66
2022/01/06 01:58:38;;;;;;;10.98;4.95;;;;;;;0.87;71.52;97407.06;5109319;28;20032;-67
2022/01/06 02:01:04;;;;;;;8.95;4.50;;;;;;;0.90;71.37;97408.44;5091029;27;20053;-66
2022/01/06 02:03:30;;;;;;;8.05;3.45;;;;;;;0.92;72.10;97413.59;5109957;28;20032;-66
2022/01/06 02:05:56;;;;;;;8.02;4.63;;;;;;;0.94;71.85;97414.13;5094420;28;20111;-66
2022/01/06 02:08:21;;;;;;;9.32;4.40;;;;;;;0.94;71.79;97422.25;5092047;28;20462;-67
2022/01/06 02:10:47;;;;;;;9.40;4.50;;;;;;;0.97;71.69;97425.22;5109912;28;20027;-67
2022/01/06 02:13:12;;;;;;;9.50;3.92;;;;;;;1.00;71.94;97430.09;5104492;27;20441;-67
2022/01/06 02:15:38;;;;;;;8.68;4.07;;;;;;;1.03;71.57;97418.78;5091078;28;20015;-66
2022/01/06 02:18:03;;;;;;;7.07;3.67;;;;;;;1.04;71.53;97419.59;5091691;28;20632;-66
2022/01/06 02:20:29;;;;;;;7.07;3.38;;;;;;;1.04;71.80;97419.59;5109759;27;20114;-67
2022/01/06 02:22:54;;;;;;;7.35;3.63;;;;;;;1.04;71.91;97420.41;5110170;27;20014;-66
2022/01/06 02:25:27;;;;;;;7.60;4.43;;;;;;;1.04;71.67;97419.59;5106407;28;20055;-67
2022/01/06 02:27:53;;;;;;;8.60;4.10;;;;;;;1.06;71.36;97422.84;5091353;28;20026;-67
2022/01/06 02:30:21;;;;;;;8.77;5.00;;;;;;;1.06;71.91;97422.84;5109844;28;20027;-66
2022/01/06 02:32:47;;;;;;;11.52;5.18;;;;;;;1.07;71.63;97435.28;5109300;27;20054;-66
2022/01/06 02:35:18;;;;;;;11.38;6.45;;;;;;;1.09;71.98;97426.94;5110093;28;20051;-66
2022/01/06 02:37:45;;;;;;;9.00;4.82;;;;;;;1.10;71.71;97425.84;5109153;28;20019;-67
2022/01/06 02:40:14;;;;;;;8.95;4.03;;;;;;;1.08;71.78;97419.91;5090218;28;20058;-66
2022/01/06 02:42:46;;;;;;;6.90;4.07;;;;;;;1.10;71.40;97425.84;5108307;28;20044;-67
2022/01/06 02:45:12;;;;;;;9.82;4.90;;;;;;;1.13;71.95;97425.34;5109787;27;20751;-67
2022/01/06 02:47:39;;;;;;;9.52;3.90;;;;;;;1.12;72.18;97429.91;5109243;27;20173;-67
2022/01/06 02:50:06;;;;;;;7.60;4.43;;;;;;;1.12;71.39;97435.31;5109394;27;20069;-66
2022/01/06 02:52:31;;;;;;;8.15;3.90;;;;;;;1.13;71.58;97453.16;5089786;28;20469;-66
2022/01/06 02:54:57;;;;;;;11.00;4.93;;;;;;;1.13;71.87;97439.63;5111425;27;20118;-66
2022/01/06 02:57:22;;;;;;;12.05;4.50;;;;;;;1.13;71.32;97449.66;5094814;28;20094;-67
2022/01/06 02:59:47;;;;;;;10.23;5.97;;;;;;;1.15;72.07;97442.09;5111740;27;20057;-66
2022/01/06 03:02:13;;;;;;;13.85;6.28;;;;;;;1.14;71.80;97441.28;5107822;27;20023;-66
2022/01/06 03:04:38;;;;;;;12.70;5.30;;;;;;;1.14;71.63;97441.28;5111598;27;20102;-67
2022/01/06 03:07:05;;;;;;;8.75;5.38;;;;;;;1.16;72.18;97439.13;5109889;28;20047;-67
2022/01/06 03:09:38;;;;;;;12.88;6.45;;;;;;;1.17;71.72;97438.06;5109410;28;20064;-67
2022/01/06 03:12:06;;;;;;;11.75;5.25;;;;;;;1.18;72.10;97442.38;5107086;28;20464;-67
2022/01/06 03:14:32;;;;;;;9.90;5.45;;;;;;;1.17;71.79;97442.66;5103285;28;20119;-67
2022/01/06 03:16:58;;;;;;;10.18;4.93;;;;;;;1.16;72.23;97441.81;5091753;28;20012;-67
2022/01/06 03:19:23;;;;;;;9.95;4.97;;;;;;;1.15;72.22;97442.09;5110451;28;20019;-66
2022/01/06 03:21:49;;;;;;;7.63;4.00;;;;;;;1.17;72.06;97442.66;5109774;28;20038;-67
2022/01/06 03:24:16;;;;;;;8.48;4.75;;;;;;;1.21;71.76;97448.34;5108865;28;20074;-66
2022/01/06 03:26:41;;;;;;;7.82;4.00;;;;;;;1.22;71.65;97449.97;5090747;28;20137;-66
2022/01/06 03:29:07;;;;;;;9.77;4.93;;;;;;;1.18;71.34;97438.88;5109623;28;20110;-66
2022/01/06 03:31:33;;;;;;;7.03;3.95;;;;;;;1.16;71.56;97454.53;5109144;27;20046;-67
2022/01/06 03:33:58;;;;;;;7.72;3.92;;;;;;;1.16;72.28;97449.94;5111789;27;20027;-67
2022/01/06 03:36:23;;;;;;;7.43;3.78;;;;;;;1.15;71.85;97453.69;5110022;28;20028;-66
2022/01/06 03:38:49;;;;;;;6.07;3.47;;;;;;;1.16;71.93;97452.63;5111358;27;20495;-66
2022/01/06 03:41:14;;;;;;;6.00;2.88;;;;;;;1.19;72.27;97454.00;5108414;28;20032;-67
2022/01/06 03:43:39;;;;;;;6.55;3.85;;;;;;;1.21;71.87;97454.56;5091414;28;20024;-68
2022/01/06 03:46:05;;;;;;;7.35;2.88;;;;;;;1.21;72.18;97456.44;5109482;28;20074;-67
2022/01/06 03:48:30;;;;;;;4.90;3.10;;;;;;;1.19;71.97;97460.22;5109387;28;20019;-67
2022/01/06 03:50:56;;;;;;;6.82;3.50;;;;;;;1.23;71.68;97448.88;5108950;28;20090;-67
2022/01/06 03:53:21;;;;;;;6.63;4.00;;;;;;;1.23;71.81;97454.28;5109459;28;20040;-67
2022/01/06 03:55:47;;;;;;;7.57;3.63;;;;;;;1.22;71.35;97452.66;5108919;28;20024;-67
2022/01/06 03:58:12;;;;;;;6.57;3.50;;;;;;;1.20;72.16;97444.84;5108040;28;20059;-66
2022/01/06 04:00:38;;;;;;;7.28;3.25;;;;;;;1.21;71.78;97453.75;5088216;28;20038;-66
2022/01/06 04:03:04;;;;;;;5.55;2.90;;;;;;;1.22;71.56;97450.78;5089926;28;20421;-68
2022/01/06 04:05:31;;;;;;;8.90;4.15;;;;;;;1.24;72.27;97445.13;5107419;28;20102;-67
2022/01/06 04:07:57;;;;;;;7.95;3.20;;;;;;;1.24;72.32;97451.31;5108222;28;20044;-66
2022/01/06 04:10:22;;;;;;;5.35;2.83;;;;;;;1.24;72.08;97445.13;5109562;28;20023;-67
2022/01/06 04:12:48;;;;;;;7.90;3.00;;;;;;;1.25;72.33;97446.75;5108871;28;20532;-66
2022/01/06 04:15:14;;;;;;;6.60;3.38;;;;;;;1.23;72.21;97459.69;5108951;28;20031;-66
2022/01/06 04:17:41;;;;;;;7.90;4.00;;;;;;;1.22;72.06;97458.91;5107125;28;20495;-66
2022/01/06 04:20:07;;;;;;;6.95;2.88;;;;;;;1.22;72.40;97466.16;5108183;28;20100;-67
2022/01/06 04:22:34;;;;;;;7.57;3.28;;;;;;;1.23;72.51;97468.59;5088287;28;20024;-67
2022/01/06 04:24:59;;;;;;;6.65;3.33;;;;;;;1.23;72.34;97476.69;5088894;28;20372;-67
2022/01/06 04:27:24;;;;;;;7.82;3.20;;;;;;;1.25;72.47;97473.75;5108232;28;20024;-67
2022/01/06 04:29:50;;;;;;;6.93;3.60;;;;;;;1.25;72.68;97479.16;5090396;28;20024;-66
2022/01/06 04:32:15;;;;;;;6.70;3.40;;;;;;;1.25;72.16;97479.97;5109396;28;20039;-67
2022/01/06 04:34:41;;;;;;;5.32;3.17;;;;;;;1.26;72.11;97476.19;5110576;28;20449;-67
2022/01/06 04:37:06;;;;;;;6.65;3.65;;;;;;;1.24;72.49;97482.94;5113831;28;20054;-67
2022/01/06 04:39:31;;;;;;;7.13;3.95;;;;;;;1.26;72.28;97472.69;5112025;28;20032;-67
2022/01/06 04:41:57;;;;;;;8.55;3.63;;;;;;;1.28;72.48;97475.94;5112155;28;20024;-67
2022/01/06 04:44:22;;;;;;;7.03;3.45;;;;;;;1.27;72.16;97474.31;5114308;28;20024;-67
2022/01/06 04:46:48;;;;;;;7.75;3.90;;;;;;;1.25;72.08;97479.97;5113701;28;20792;-67
2022/01/06 04:49:13;;;;;;;8.98;4.20;;;;;;;1.24;72.94;97475.63;5095629;28;20032;-66
2022/01/06 04:51:39;;;;;;;8.23;3.90;;;;;;;1.24;72.10;97485.63;5112184;28;20027;-66
2022/01/06 04:54:04;;;;;;;6.68;3.60;;;;;;;1.23;71.86;97482.09;5113029;28;20379;-67
2022/01/06 04:56:36;;;;;;;9.13;4.30;;;;;;;1.23;71.89;97484.00;5111797;28;20038;-66
2022/01/06 04:59:08;;;;;;;7.78;4.03;;;;;;;1.25;72.78;97490.75;5093092;28;20528;-67
2022/01/06 05:01:34;;;;;;;7.50;3.47;;;;;;;1.25;72.32;97493.47;5111964;28;20574;-66
2022/01/06 05:04:01;;;;;;;8.55;4.10;;;;;;;1.26;72.25;97497.78;5113634;28;20059;-66
2022/01/06 05:06:27;;;;;;;7.68;3.42;;;;;;;1.28;72.94;97503.75;5111561;28;20024;-67
2022/01/06 05:08:52;;;;;;;9.75;3.88;;;;;;;1.30;72.89;97498.91;5109189;28;20399;-67
2022/01/06 05:11:18;;;;;;;8.15;3.63;;;;;;;1.32;72.82;97502.16;5113128;28;20098;-67
2022/01/06 05:13:43;;;;;;;6.70;3.20;;;;;;;1.33;72.69;97497.59;5113058;28;20094;-67
2022/01/06 05:16:10;;;;;;;7.50;3.60;;;;;;;1.33;72.77;97500.28;5112803;28;20492;-67
2022/01/06 05:18:36;;;;;;;7.72;3.63;;;;;;;1.34;72.48;97501.91;5112311;28;20027;-67
2022/01/06 05:21:04;;;;;;;7.63;3.88;;;;;;;1.34;72.60;97504.63;5094143;28;20154;-67
2022/01/06 05:23:30;;;;;;;8.77;3.70;;;;;;;1.33;72.60;97503.00;5112423;28;20028;-67
2022/01/06 05:25:56;;;;;;;8.15;3.70;;;;;;;1.32;72.36;97504.06;5095543;28;20039;-66
2022/01/06 05:28:22;;;;;;;9.90;4.47;;;;;;;1.32;72.11;97514.88;5112953;28;20410;-67
2022/01/06 05:30:47;;;;;;;9.70;3.83;;;;;;;1.30;72.87;97512.41;5114085;27;20011;-66
2022/01/06 05:33:13;;;;;;;8.07;4.10;;;;;;;1.31;72.48;97519.44;5112657;27;20027;-67
2022/01/06 05:35:38;;;;;;;10.00;3.70;;;;;;;1.32;73.17;97512.97;5112681;28;20450;-67
2022/01/06 05:38:03;;;;;;;8.77;4.50;;;;;;;1.34;72.99;97527.03;5112574;28;20495;-67
2022/01/06 05:40:29;;;;;;;6.45;4.00;;;;;;;1.33;72.54;97520.00;5106237;28;20036;-66
2022/01/06 05:42:56;;;;;;;9.68;4.63;;;;;;;1.34;73.00;97528.94;5111509;28;20023;-66
2022/01/06 05:45:22;;;;;;;11.65;4.45;;;;;;;1.38;73.04;97527.34;5112004;28;20484;-67
2022/01/06 05:47:47;;;;;;;6.53;4.00;;;;;;;1.39;73.11;97520.03;5111074;28;20028;-67
2022/01/06 05:50:13;;;;;;;9.43;4.47;;;;;;;1.39;72.84;97523.56;5112592;28;20027;-67
2022/01/06 05:52:38;;;;;;;7.95;4.70;;;;;;;1.41;72.81;97528.72;5112551;28;20028;-66
2022/01/06 05:55:04;;;;;;;10.00;5.10;;;;;;;1.42;72.20;97527.63;5094600;28;20023;-67
2022/01/06 05:57:29;;;;;;;11.70;5.30;;;;;;;1.40;72.46;97527.91;5113381;28;20035;-66
2022/01/06 05:59:55;;;;;;;15.80;6.47;;;;;;;1.37;73.07;97530.28;5111923;28;20062;-66
2022/01/06 06:02:20;;;;;;;15.65;6.72;;;;;;;1.33;72.99;97543.53;5112126;28;20023;-66
2022/01/06 06:04:46;;;;;;;18.38;9.38;;;;;;;1.33;73.08;97535.41;5111742;28;20035;-67
2022/01/06 06:07:12;;;;;;;22.58;11.98;;;;;;;1.30;73.35;97533.22;5110230;28;20043;-67
2022/01/06 06:09:37;;;;;;;17.85;7.60;;;;;;;1.30;73.42;97541.31;5093484;28;20032;-67
2022/01/06 06:12:03;;;;;;;14.00;6.85;;;;;;;1.33;72.47;97541.63;5109197;28;20511;-66
2022/01/06 06:14:28;;;;;;;8.50;5.03;;;;;;;1.36;72.71;97547.56;5110688;27;20026;-66
2022/01/06 06:16:54;;;;;;;8.52;4.70;;;;;;;1.38;73.10;97548.97;5094350;28;20110;-67
2022/01/06 06:19:19;;;;;;;10.48;4.65;;;;;;;1.39;72.62;97552.47;5090640;28;20473;-66
2022/01/06 06:21:44;;;;;;;10.88;4.93;;;;;;;1.38;72.39;97551.66;5109184;28;20031;-66
2022/01/06 06:24:10;;;;;;;10.07;5.05;;;;;;;1.35;72.77;97565.69;5112428;28;20048;-67
2022/01/06 06:26:35;;;;;;;12.30;4.95;;;;;;;1.33;72.55;97570.53;5112628;28;20027;-66
2022/01/06 06:29:00;;;;;;;10.50;4.38;;;;;;;1.34;73.30;97569.47;5110469;28;20030;-66
2022/01/06 06:31:26;;;;;;;13.20;5.50;;;;;;;1.34;73.29;97580.28;5095018;28;20388;-65
2022/01/06 06:33:51;;;;;;;21.67;7.32;;;;;;;1.34;72.86;97586.47;5111091;28;20077;-66
2022/01/06 06:36:17;;;;;;;17.23;6.15;;;;;;;1.38;73.13;97584.09;5090911;28;20031;-67
2022/01/06 06:38:42;;;;;;;13.52;6.68;;;;;;;1.42;73.17;97598.72;5109252;28;20048;-67
2022/01/06 06:41:07;;;;;;;13.18;6.05;;;;;;;1.45;73.83;97576.56;5111742;28;21789;-67
2022/01/06 06:43:33;;;;;;;16.95;7.18;;;;;;;1.48;73.15;97588.75;5109271;28;20418;-67
2022/01/06 06:45:58;;;;;;;12.73;7.25;;;;;;;1.52;73.22;97594.44;5106148;28;20032;-67
2022/01/06 06:48:25;;;;;;;11.20;5.35;;;;;;;1.54;73.43;97597.69;5110398;28;20380;-66
2022/01/06 06:50:50;;;;;;;9.55;5.03;;;;;;;1.55;73.50;97588.53;5113813;27;20426;-66
2022/01/06 06:53:16;;;;;;;9.30;4.60;;;;;;;1.58;73.47;97593.41;5111036;27;20091;-66
2022/01/06 06:55:42;;;;;;;11.07;4.53;;;;;;;1.58;73.63;97607.75;5114055;27;20023;-66
2022/01/06 06:58:07;;;;;;;15.65;6.65;;;;;;;1.60;73.80;97619.13;5111990;27;20019;-66
2022/01/06 07:00:33;;;;;;;9.68;4.75;;;;;;;1.61;73.69;97615.34;5111341;27;20491;-67
2022/01/06 07:02:58;;;;;;;9.60;4.68;;;;;;;1.61;73.25;97618.06;5092698;28;20123;-67
2022/01/06 07:05:24;;;;;;;13.13;5.95;;;;;;;1.62;73.00;97621.56;5108505;28;20030;-67
2022/01/06 07:07:49;;;;;;;10.48;4.97;;;;;;;1.63;73.08;97631.28;5111918;27;20790;-66
2022/01/06 07:10:14;;;;;;;9.15;4.75;;;;;;;1.61;73.14;97628.03;5111543;27;20459;-66
2022/01/06 07:12:45;;;;;;;12.05;5.20;;;;;;;1.61;73.92;97622.63;5093097;28;20023;-66
2022/01/06 07:15:11;;;;;;;;;;;;;;;1.61;73.66;97633.44;5092576;28;20027;-66
2022/01/06 07:17:37;;;;;;;11.98;5.47;;;;;;;1.61;73.28;97636.13;5109456;28;20300;-66
2022/01/06 07:20:04;;;;;;;13.40;6.03;;;;;;;1.58;73.72;97631.25;5091713;28;20109;-66
2022/01/06 07:22:29;;;;;;;14.40;5.80;;;;;;;1.57;73.66;97648.53;5092423;28;20760;-67
2022/01/06 07:24:55;;;;;;;13.60;6.93;;;;;;;1.57;73.72;97637.72;5091231;28;20024;-66
2022/01/06 07:27:20;;;;;;;13.40;6.88;;;;;;;1.60;73.64;97643.44;5109565;28;20444;-67
2022/01/06 07:29:46;;;;;;;23.75;13.02;;;;;;;1.63;73.98;97639.41;5109947;27;20042;-67
2022/01/06 07:32:11;;;;;;;19.73;7.97;;;;;;;1.64;73.31;97639.13;5108180;28;20023;-67
2022/01/06 07:34:36;;;;;;;22.42;11.45;;;;;;;1.68;73.81;97649.44;5091626;28;20015;-66
2022/01/06 07:37:03;;;;;;;21.42;11.85;;;;;;;1.68;74.04;97647.56;5109865;28;20027;-67
2022/01/06 07:39:28;;;;;;;15.48;6.97;;;;;;;1.72;73.24;97655.94;5112032;27;20069;-67
2022/01/06 07:41:54;;;;;;;15.80;7.45;;;;;;;1.74;74.05;97653.81;5109318;28;20035;-66
2022/01/06 07:44:19;;;;;;;18.67;8.30;;;;;;;1.76;74.06;97657.06;5109999;28;20024;-66
2022/01/06 07:46:46;;;;;;;14.57;8.63;;;;;;;1.80;74.18;97658.19;5109526;27;20094;-66
2022/01/06 07:49:12;;;;;;;20.88;9.07;;;;;;;1.81;73.55;97659.81;5109053;28;20524;-66
2022/01/06 07:51:37;;;;;;;28.35;15.52;;;;;;;1.82;73.59;97649.81;5109539;28;20015;-67
2022/01/06 07:54:03;;;;;;;41.03;17.98;;;;;;;1.86;73.92;97664.44;5109218;28;20024;-66
2022/01/06 07:56:28;;;;;;;21.92;10.45;;;;;;;1.87;73.81;97674.19;5110748;28;20027;-66
2022/01/06 07:58:55;;;;;;;65.60;25.40;;;;;;;1.87;73.72;97675.00;5110296;28;20019;-66
2022/01/06 08:01:20;;;;;;;74.47;29.35;;;;;;;1.87;73.27;97666.91;5107754;28;20114;-66
2022/01/06 08:03:46;;;;;;;132.00;44.80;;;;;;;1.90;73.87;97674.50;5110345;28;20103;-66
2022/01/06 08:06:14;;;;;;;105.45;39.25;;;;;;;1.91;73.78;97664.47;5091258;28;20016;-67
2022/01/06 08:08:40;;;;;;;84.97;35.90;;;;;;;1.93;73.28;97662.31;5108262;28;20126;-67
2022/01/06 08:11:06;;;;;;;67.93;30.23;;;;;;;1.92;73.58;97672.34;5109118;28;20031;-67
2022/01/06 08:13:32;;;;;;;52.80;22.23;;;;;;;1.90;73.76;97663.69;5107332;28;20019;-66
2022/01/06 08:15:57;;;;;;;42.65;21.25;;;;;;;1.91;73.30;97676.13;5110632;28;20023;-66
2022/01/06 08:18:22;;;;;;;37.50;21.23;;;;;;;1.96;73.90;97672.63;5109677;28;20028;-67
2022/01/06 08:20:48;;;;;;;42.55;16.80;;;;;;;2.02;73.59;97678.91;5108985;28;20035;-67
2022/01/06 08:23:13;;;;;;;20.55;9.10;;;;;;;2.04;73.52;97685.69;5108552;28;20106;-67
2022/01/06 08:25:39;;;;;;;27.13;9.82;;;;;;;2.09;73.90;97693.00;5109485;28;20064;-67
2022/01/06 08:28:05;;;;;;;27.63;10.77;;;;;;;2.20;74.05;97697.41;5109543;28;20028;-67
2022/01/06 08:30:31;;;;;;;19.17;8.45;;;;;;;2.30;73.63;97699.38;5109639;28;20036;-67
2022/01/06 08:32:56;;;;;;;20.20;8.07;;;;;;;2.38;73.46;97701.59;5109347;28;20034;-67
2022/01/06 08:35:23;;;;;;;20.02;9.10;;;;;;;2.46;73.79;97707.59;5108984;28;20031;-67
2022/01/06 08:37:48;;;;;;;17.17;7.60;;;;;;;2.52;72.54;97712.75;5108568;28;20032;-67
2022/01/06 08:40:13;;;;;;;15.68;6.25;;;;;;;2.56;73.58;97723.06;5109496;28;20486;-66
2022/01/06 08:42:39;;;;;;;17.08;6.60;;;;;;;2.58;72.15;97726.31;5108520;28;20773;-67
2022/01/06 08:45:05;;;;;;;16.25;6.82;;;;;;;2.57;72.45;97728.22;5091003;28;20038;-67
2022/01/06 08:47:31;;;;;;;14.02;6.25;;;;;;;2.54;71.71;97728.75;5109307;28;20023;-67
2022/01/06 08:49:57;;;;;;;6.57;3.10;;;;;;;2.52;72.24;97739.81;5091290;28;20387;-67
2022/01/06 08:52:23;;;;;;;5.68;2.65;;;;;;;2.43;71.82;97748.72;5089802;28;20027;-67
2022/01/06 08:54:49;;;;;;;5.18;2.65;;;;;;;2.32;72.00;97745.13;5109465;28;20136;-67
2022/01/06 08:57:14;;;;;;;5.32;2.40;;;;;;;2.16;72.53;97758.53;5108980;28;20497;-66
2022/01/06 08:59:40;;;;;;;4.50;3.00;;;;;;;2.01;72.74;97748.41;5109445;28;20016;-67
2022/01/06 09:02:05;;;;;;;2.83;2.00;;;;;;;1.95;73.33;97767.56;5106270;28;20128;-67
2022/01/06 09:04:31;;;;;;;3.90;2.42;;;;;;;1.87;73.97;97768.81;5109131;28;20038;-67
2022/01/06 09:06:58;;;;;;;6.50;2.22;;;;;;;1.75;73.77;97771.69;5110077;28;20032;-67
2022/01/06 09:09:24;;;;;;;5.53;2.80;;;;;;;1.67;74.51;97772.16;5109882;28;20059;-67
2022/01/06 09:11:49;;;;;;;6.88;3.83;;;;;;;1.59;74.85;97782.38;5090363;28;20106;-67
2022/01/06 09:14:15;;;;;;;7.47;3.85;;;;;;;1.58;75.14;97782.59;5092366;28;20106;-66
2022/01/06 09:16:40;;;;;;;10.10;4.20;;;;;;;1.58;74.85;97799.66;5107261;28;20479;-65
2022/01/06 09:19:06;;;;;;;5.90;3.20;;;;;;;1.55;75.31;97789.34;5108170;28;20145;-67
2022/01/06 09:21:31;;;;;;;13.02;5.28;;;;;;;1.51;74.95;97799.03;5108612;28;20020;-66
2022/01/06 09:24:04;;;;;;;17.02;8.60;;;;;;;1.44;75.12;97793.81;5114162;28;20463;-66
2022/01/06 09:26:30;;;;;;;12.20;7.07;;;;;;;1.42;75.64;97800.53;5113452;28;20464;-65
2022/01/06 09:28:55;;;;;;;8.55;4.60;;;;;;;1.41;75.74;97805.13;5113926;28;20028;-65
2022/01/06 09:31:21;;;;;;;14.43;7.05;;;;;;;1.35;76.41;97800.75;5112256;28;20023;-66
2022/01/06 09:33:46;;;;;;;9.52;5.97;;;;;;;1.31;76.71;97803.13;5111921;28;20024;-65
2022/01/06 09:36:11;;;;;;;14.80;5.55;;;;;;;1.26;77.38;97813.06;5113890;28;20765;-65
2022/01/06 09:38:37;;;;;;;10.30;6.05;;;;;;;1.19;77.24;97811.34;5112887;28;20073;-65
2022/01/06 09:41:05;;;;;;;16.95;9.38;;;;;;;1.17;77.28;97809.97;5113206;28;20070;-65
2022/01/06 09:43:32;;;;;;;16.88;8.20;;;;;;;1.18;77.94;97822.41;5112772;28;20077;-64
2022/01/06 09:46:05;;;;;;;26.50;13.30;;;;;;;1.10;76.75;97820.94;5113745;28;20357;-65
2022/01/06 09:48:34;;;;;;;15.52;7.40;;;;;;;1.10;77.79;97828.25;5111261;28;20019;-65
2022/01/06 09:51:00;;;;;;;9.50;4.45;;;;;;;1.06;76.66;97822.50;5112121;28;20139;-65
2022/01/06 09:53:26;;;;;;;10.90;8.05;;;;;;;1.12;77.19;97823.41;5112616;28;20048;-65
2022/01/06 09:55:52;;;;;;;8.73;5.45;;;;;;;1.19;77.17;97827.56;5113142;28;20019;-65
2022/01/06 09:58:23;;;;;;;5.80;2.40;;;;;;;1.25;76.48;97831.13;5112769;28;20024;-65
2022/01/06 10:00:49;;;;;;;8.38;3.58;;;;;;;1.34;76.14;97845.03;5107510;28;20035;-65
2022/01/06 10:03:15;;;;;;;7.97;3.55;;;;;;;1.43;76.18;97837.31;5107889;28;20084;-65
2022/01/06 10:05:43;;;;;;;5.80;3.17;;;;;;;1.48;73.52;97835.47;5112349;28;20114;-65
2022/01/06 10:08:11;;;;;;;7.53;3.33;;;;;;;1.45;73.36;97845.97;5111673;28;20094;-65
2022/01/06 10:10:37;;;;;;;8.70;3.60;;;;;;;1.41;73.33;97845.69;5112410;28;20134;-65
2022/01/06 10:13:07;;;;;;;5.68;2.47;;;;;;;1.37;72.71;97843.72;5112559;28;20031;-65
2022/01/06 10:15:36;;;;;;;12.30;4.40;;;;;;;1.36;72.90;97847.47;5112046;28;20036;-65
2022/01/06 10:18:15;;;;;;;7.43;3.63;;;;;;;1.44;72.46;97852.44;5109782;28;20016;-65
2022/01/06 10:20:42;;;;;;;6.70;2.88;;;;;;;1.49;71.39;97849.81;5108587;28;20036;-66
2022/01/06 10:23:14;;;;;;;7.22;3.00;;;;;;;1.47;72.13;97860.84;5111027;28;20067;-66
2022/01/06 10:25:48;;;;;;;6.68;2.55;;;;;;;1.40;70.74;97856.72;5111899;28;20024;-66
2022/01/06 10:28:22;;;;;;;25.35;7.45;;;;;;;1.38;71.92;97864.25;5111024;28;20605;-66
2022/01/06 10:30:49;;;;;;;22.88;6.93;;;;;;;1.35;70.83;97868.28;5109572;28;20026;-66
2022/01/06 10:33:19;;;;;;;12.85;5.88;;;;;;;1.32;70.52;97869.59;5114018;27;20027;-66
2022/01/06 10:35:45;;;;;;;17.38;5.47;;;;;;;1.38;70.26;97869.66;5093678;28;20028;-66
2022/01/06 10:38:11;;;;;;;20.73;6.97;;;;;;;1.45;70.17;97878.41;5111760;28;20039;-67
2022/01/06 10:40:38;;;;;;;18.92;5.00;;;;;;;1.52;70.99;97879.03;5111870;27;20035;-66
2022/01/06 10:43:05;;;;;;;10.82;3.50;;;;;;;1.61;71.50;97885.66;5113114;27;20039;-67
2022/01/06 10:45:33;;;;;;;6.47;3.35;;;;;;;1.60;70.71;97896.69;5112142;27;20027;-66
2022/01/06 10:48:03;;;;;;;15.98;5.97;;;;;;;1.52;69.84;97906.06;5111445;28;20418;-66
2022/01/06 10:50:35;;;;;;;13.48;4.82;;;;;;;1.41;67.21;97894.31;5093412;28;20079;-66
2022/01/06 10:53:07;;;;;;;13.07;5.53;;;;;;;1.36;68.32;97899.66;5112324;28;20027;-66
2022/01/06 10:55:37;;;;;;;15.80;7.70;;;;;;;1.28;68.22;97894.66;5111152;28;20106;-66
2022/01/06 10:58:02;;;;;;;19.90;5.28;;;;;;;1.27;68.63;97899.25;5113374;27;20039;-66
2022/01/06 11:00:32;;;;;;;10.85;4.20;;;;;;;1.33;68.73;97894.75;5112802;27;20077;-66
2022/01/06 11:03:24;;;;;;;10.32;6.30;;;;;;;1.45;68.98;97894.63;5111988;28;20024;-66
2022/01/06 11:05:55;;;;;;;16.23;5.18;;;;;;;1.47;68.20;97904.09;5114868;27;20023;-66
2022/01/06 11:08:25;;;;;;;34.15;13.13;;;;;;;1.43;68.95;97900.25;5104740;28;20040;-66
2022/01/06 11:12:26;;;;;;;34.10;12.15;;;;;;;1.40;68.49;97908.06;5109634;28;20028;-66
2022/01/06 11:13:51;;;;;;;16.30;6.57;;;;;;;1.32;68.26;97928.22;5091908;28;20036;-66
2022/01/06 11:16:19;;;;;;;10.80;4.10;;;;;;;1.23;66.48;97929.72;5105582;28;20028;-66
2022/01/06 11:18:56;;;;;;;10.75;4.07;;;;;;;1.15;66.18;97937.16;5109564;28;20023;-66
2022/01/06 11:21:35;;;;;;;14.00;5.28;;;;;;;1.01;65.62;97954.78;5109273;28;20066;-67
2022/01/06 11:24:02;;;;;;;24.33;6.07;;;;;;;0.94;65.81;97943.34;5106366;28;20062;-66
2022/01/06 11:26:27;;;;;;;8.88;3.20;;;;;;;0.85;65.32;97956.41;5113486;27;20130;-66
2022/01/06 11:28:58;;;;;;;21.52;6.78;;;;;;;0.86;66.08;97949.94;5112277;27;20099;-65
2022/01/06 11:31:25;;;;;;;30.35;10.07;;;;;;;0.95;65.79;97943.06;5107478;27;20051;-65
2022/01/06 11:33:53;;;;;;;21.45;6.93;;;;;;;1.08;66.06;97939.22;5106311;28;20027;-65
2022/01/06 11:36:26;;;;;;;12.95;4.90;;;;;;;1.17;64.82;97937.75;5114369;27;20115;-65
2022/01/06 11:38:53;;;;;;;10.15;4.15;;;;;;;1.26;65.37;97957.03;5108850;28;20114;-65
2022/01/06 11:41:19;;;;;;;18.70;5.32;;;;;;;1.34;64.53;97951.22;5107488;28;20053;-65